createdAt,value
2022-08-19T00:14:50.148Z,77.7
2022-08-19T00:19:36.514Z,77.9
2022-08-19T00:25:42.987Z,77.7
2022-08-19T00:29:52.538Z,78.0
2022-08-19T00:34:55.791Z,78.0
2022-08-19T00:39:52.195Z,78.1
2022-08-19T00:45:08.557Z,78.1
2022-08-19T00:50:04.900Z,78.1
2022-08-19T00:55:21.294Z,78.1
2022-08-19T01:00:27.731Z,78.3
2022-08-19T01:05:34.104Z,78.1
2022-08-19T01:10:33.626Z,78.4
2022-08-19T01:25:49.615Z,78.2
2022-08-19T01:31:07.967Z,78.4
2022-08-19T01:36:02.573Z,78.4
2022-08-19T01:41:18.968Z,78.4
2022-08-19T01:46:25.370Z,78.4
2022-08-19T01:53:07.640Z,78.5
2022-08-19T01:56:38.139Z,79.1
2022-08-19T02:01:44.592Z,78.6
2022-08-19T02:06:50.915Z,78.6
2022-08-19T02:12:21.321Z,78.7
2022-08-19T02:17:03.652Z,78.8
2022-08-19T02:22:10.038Z,78.8
2022-08-19T02:27:16.443Z,78.9
2022-08-19T02:32:22.964Z,78.9
2022-08-19T02:37:29.335Z,79.1
2022-08-19T02:42:35.761Z,79.0
2022-08-19T02:47:42.128Z,78.9
2022-08-19T02:52:48.603Z,79.2
2022-08-19T02:57:55.075Z,79.1
2022-08-19T03:13:14.325Z,79.2
2022-08-19T03:18:20.735Z,79.4
2022-08-19T03:29:02.370Z,79.9
2022-08-19T03:34:09.852Z,78.8
2022-08-19T03:39:06.264Z,78.5
2022-08-19T03:44:50.729Z,78.6
2022-08-19T03:49:29.096Z,78.8
2022-08-19T03:57:40.657Z,79.4
2022-08-19T04:02:58.178Z,78.7
2022-08-19T04:08:18.477Z,78.6
2022-08-19T04:13:00.819Z,78.8
2022-08-19T04:20:55.612Z,78.8
2022-08-19T04:23:13.649Z,79.0
2022-08-19T04:28:44.091Z,79.1
2022-08-19T04:33:16.387Z,79.0
2022-08-19T04:38:32.790Z,79.1
2022-08-19T04:44:04.548Z,79.0
2022-08-19T04:48:49.391Z,79.0
2022-08-19T04:53:52.040Z,79.2
2022-08-19T04:58:58.453Z,79.1
2022-08-19T05:04:04.791Z,79.3
2022-08-19T05:09:11.173Z,79.5
2022-08-19T05:14:37.649Z,79.6
2022-08-19T05:19:25.135Z,79.5
2022-08-19T05:26:49.457Z,79.6
2022-08-19T05:31:09.259Z,79.2
2022-08-19T05:36:47.918Z,79.3
2022-08-19T05:42:09.334Z,79.6
2022-08-19T05:47:01.694Z,79.3
2022-08-19T05:51:58.044Z,79.7
2022-08-19T06:02:20.845Z,79.7
2022-08-19T06:07:27.274Z,79.7
2022-08-19T06:12:37.618Z,80.6
2022-08-19T06:17:44.009Z,82.5
2022-08-19T06:22:50.395Z,81.8
2022-08-19T06:28:13.941Z,82.9
2022-08-19T06:33:23.871Z,84.2
2022-08-19T06:38:30.242Z,83.8
2022-08-19T06:43:16.594Z,84.2
2022-08-19T06:48:45.698Z,84.3
2022-08-19T06:53:15.327Z,85.1
2022-08-19T06:58:31.706Z,85.0
2022-08-19T07:03:58.119Z,85.9
2022-08-19T07:08:44.482Z,87.0
2022-08-19T07:13:50.849Z,86.3
2022-08-19T07:18:57.219Z,86.0
2022-08-19T07:24:05.457Z,86.5
2022-08-19T07:29:10.140Z,88.8
2022-08-19T07:34:16.617Z,88.9
2022-08-19T07:39:23.002Z,88.9
2022-08-19T07:44:29.421Z,87.6
2022-08-19T07:49:35.749Z,85.3
2022-08-19T07:55:06.174Z,83.8
2022-08-19T07:59:48.514Z,81.6
2022-08-19T08:06:07.205Z,80.0
2022-08-19T08:10:03.130Z,78.1
2022-08-19T08:15:08.358Z,76.8
2022-08-19T08:20:14.703Z,75.1
2022-08-19T08:25:21.097Z,72.1
2022-08-19T08:30:28.440Z,70.9
2022-08-19T08:41:00.469Z,67.1
2022-08-19T08:45:46.809Z,66.0
2022-08-19T08:50:53.186Z,64.4
2022-08-19T08:55:59.571Z,62.9
2022-08-19T09:01:06.087Z,60.0
2022-08-19T09:06:12.443Z,59.2
2022-08-19T09:11:43.057Z,57.7
2022-08-19T09:16:27.901Z,56.5
2022-08-19T09:26:48.622Z,58.1
2022-08-19T09:31:44.708Z,56.7
2022-08-19T09:36:51.135Z,57.2
2022-08-19T09:43:13.719Z,56.0
2022-08-19T09:47:03.903Z,53.4
2022-08-19T09:52:00.253Z,54.2
2022-08-19T09:58:13.804Z,54.7
2022-08-19T10:03:50.245Z,54.7
2022-08-19T10:09:01.619Z,53.9
2022-08-19T10:14:04.016Z,54.1
2022-08-19T10:19:30.452Z,52.4
2022-08-19T10:24:40.855Z,50.5
2022-08-19T10:29:32.516Z,50.7
2022-08-19T10:34:57.093Z,50.6
2022-08-19T10:39:26.032Z,48.4
2022-08-19T10:44:42.459Z,47.4
2022-08-19T10:49:48.882Z,47.5
2022-08-19T10:55:09.306Z,48.0
2022-08-19T11:00:25.717Z,47.4
2022-08-19T11:05:12.694Z,48.0
2022-08-19T11:10:18.223Z,47.8
2022-08-19T11:20:27.403Z,46.2
2022-08-19T11:25:33.807Z,46.4
2022-08-19T11:30:40.188Z,48.3
2022-08-19T11:35:46.696Z,47.0
2022-08-19T11:40:53.066Z,46.9
2022-08-19T11:45:59.462Z,46.1
2022-08-19T11:51:09.859Z,46.5
2022-08-19T11:56:12.243Z,46.9
2022-08-19T12:01:20.184Z,46.8
2022-08-19T12:06:26.631Z,49.0
2022-08-19T12:11:34.653Z,51.6
2022-08-19T12:21:35.737Z,52.2
2022-08-19T12:26:52.948Z,50.1
2022-08-19T12:31:58.740Z,52.5
2022-08-19T12:37:19.143Z,54.3
2022-08-19T12:42:11.526Z,52.9
2022-08-19T12:57:32.179Z,53.9
2022-08-19T13:02:38.826Z,54.3
2022-08-19T13:07:43.645Z,55.0
2022-08-19T13:13:10.054Z,55.0
2022-08-19T13:17:56.963Z,54.3
2022-08-19T13:23:02.905Z,55.7
2022-08-19T13:28:09.605Z,54.6
2022-08-19T13:33:36.124Z,54.6
2022-08-19T13:43:23.041Z,54.4
2022-08-19T13:50:55.532Z,54.1
2022-08-19T13:54:09.652Z,54.1
2022-08-19T13:58:48.007Z,53.2
2022-08-19T14:03:54.493Z,54.2
2022-08-19T14:09:00.888Z,54.1
2022-08-19T14:14:15.845Z,53.6
2022-08-19T14:19:13.753Z,53.4
2022-08-19T14:24:20.163Z,51.8
2022-08-19T14:29:26.726Z,53.6
2022-08-19T14:34:23.128Z,53.7
2022-08-19T14:39:39.691Z,51.5
2022-08-19T14:44:36.007Z,54.3
2022-08-19T14:49:43.913Z,53.7
2022-08-19T14:55:32.865Z,53.6
2022-08-19T15:00:40.247Z,55.1
2022-08-19T15:05:46.617Z,53.3
2022-08-19T15:10:53.003Z,53.2
2022-08-19T15:15:59.433Z,53.1
2022-08-19T15:20:55.818Z,52.9
2022-08-19T15:26:16.059Z,53.4
2022-08-19T15:31:25.490Z,53.5
2022-08-19T15:36:44.987Z,53.9
2022-08-19T15:41:31.325Z,54.5
2022-08-19T15:47:01.758Z,55.0
2022-08-19T15:51:44.112Z,54.7
2022-08-19T15:56:40.462Z,55.2
2022-08-19T16:02:17.068Z,55.2
2022-08-19T16:07:07.288Z,55.3
2022-08-19T16:12:33.715Z,55.4
2022-08-19T16:17:16.116Z,55.2
2022-08-19T16:22:22.521Z,55.1
2022-08-19T16:27:28.890Z,55.1
2022-08-19T16:32:35.316Z,55.4
2022-08-19T16:37:41.702Z,55.4
2022-08-19T16:42:48.101Z,55.6
2022-08-19T16:47:54.606Z,55.6
2022-08-19T16:53:00.858Z,55.5
2022-08-19T16:57:57.341Z,56.0
2022-08-19T17:05:52.149Z,55.7
2022-08-19T17:13:26.620Z,56.2
2022-08-19T17:19:33.104Z,56.3
2022-08-19T17:23:59.412Z,56.3
2022-08-19T17:28:45.815Z,56.7
2022-08-19T17:33:52.210Z,56.8
2022-08-19T17:39:18.673Z,57.5
2022-08-19T17:43:54.985Z,58.1
2022-08-19T17:49:10.386Z,58.5
2022-08-19T17:54:21.780Z,59.0
2022-08-19T17:59:24.163Z,59.7
2022-08-19T18:04:48.707Z,60.1
2022-08-19T18:10:01.874Z,60.4
2022-08-19T18:14:43.530Z,61.1
2022-08-19T18:19:49.929Z,61.4
2022-08-19T18:24:56.375Z,62.4
2022-08-19T18:30:02.727Z,63.0
2022-08-19T18:35:09.122Z,63.1
2022-08-19T18:40:15.592Z,63.5
2022-08-19T18:45:22.016Z,63.6
2022-08-19T18:50:28.426Z,64.4
2022-08-19T18:55:34.832Z,64.4
2022-08-19T19:06:11.631Z,65.0
2022-08-19T19:10:43.960Z,65.3
2022-08-19T19:15:50.329Z,65.6
2022-08-19T19:21:06.846Z,66.0
2022-08-19T19:26:03.543Z,66.4
2022-08-19T19:31:09.953Z,66.7
2022-08-19T19:36:16.337Z,67.0
2022-08-19T19:41:32.777Z,67.0
2022-08-19T19:47:23.283Z,67.1
2022-08-19T19:51:45.587Z,68.0
2022-08-19T20:01:48.645Z,67.8
2022-08-19T20:07:04.989Z,68.1
2022-08-19T20:12:10.422Z,68.5
2022-08-19T20:17:17.810Z,68.5
2022-08-19T20:22:14.190Z,68.5
2022-08-19T20:27:20.570Z,68.9
2022-08-19T20:32:37.057Z,69.1
2022-08-19T20:37:33.417Z,69.3
2022-08-19T20:42:50.404Z,69.3
2022-08-19T20:47:56.798Z,69.5
2022-08-19T20:53:27.211Z,69.8
2022-08-19T20:58:09.593Z,69.6
2022-08-19T21:03:05.943Z,70.1
2022-08-19T21:08:46.519Z,70.2
2022-08-19T21:13:28.889Z,70.4
2022-08-19T21:18:25.259Z,70.5
2022-08-19T21:23:41.685Z,70.6
2022-08-19T21:28:48.063Z,70.8
2022-08-19T21:33:44.418Z,70.7
2022-08-19T21:39:14.925Z,71.0
2022-08-19T21:43:57.251Z,71.2
2022-08-19T21:49:03.637Z,71.4
2022-08-19T21:54:40.079Z,71.4
2022-08-19T22:05:06.921Z,71.9
2022-08-19T22:15:20.721Z,72.1
2022-08-19T22:20:27.116Z,72.0
2022-08-19T22:25:33.489Z,72.7
2022-08-19T22:30:39.867Z,73.0
2022-08-19T22:36:15.863Z,73.2
2022-08-19T22:40:44.171Z,73.1
2022-08-19T22:45:50.707Z,73.1
2022-08-19T22:51:07.219Z,73.4
2022-08-19T22:56:15.518Z,73.7
2022-08-19T23:02:09.084Z,73.8
2022-08-19T23:07:16.447Z,74.1
2022-08-19T23:12:12.804Z,73.8
2022-08-19T23:17:28.209Z,73.8
2022-08-19T23:22:35.579Z,73.7
2022-08-19T23:28:06.113Z,73.5
2022-08-19T23:33:13.284Z,73.5
2022-08-19T23:38:09.626Z,73.8
2022-08-19T23:43:01.994Z,74.1
2022-08-19T23:48:21.410Z,74.2
2022-08-19T23:53:55.881Z,75.3
2022-08-19T23:59:03.236Z,75.9
